Terminal Aerodrome Forecast
Issued by NWS Hastings, NE

Home | Current Version | Previous Version | Text Only | Print | Product List | Glossary On
Versions: 1 2 3 4 5 6 7 8 9 10 11 12 13
000
FTUS45 KGID 270520
TAFEAR
TAF
KEAR 270520Z 2706/2806 12004KT 3SM BR SCT020 OVC090
     FM270900 VRB03KT 2SM BR OVC010
     FM271100 14004KT 1SM BR OVC003
     FM271200 14004KT 1/2SM FG BKN003 OVC025
     FM271400 14005KT 3SM BR OVC003
     FM271600 16006KT P6SM FEW025 SCT030
      AMD LTD TO CLD VIS AND WIND=

USA.gov is the U.S. government's official web portal to all federal, state and local government web resources and services.